sensor_id;sensor_type;location;lat;lon;timestamp;temperature;humidity
42835;DHT22;29335;50.526;30.458;2022-09-01T00:01:51;17.30;85.60
42835;DHT22;29335;50.526;30.458;2022-09-01T00:04:20;19.60;86.60
42835;DHT22;29335;50.526;30.458;2022-09-01T00:06:46;17.30;84.60
42835;DHT22;29335;50.526;30.458;2022-09-01T00:09:15;17.20;84.60
42835;DHT22;29335;50.526;30.458;2022-09-01T00:11:43;17.20;84.60
42835;DHT22;29335;50.526;30.458;2022-09-01T00:14:10;17.10;84.30
42835;DHT22;29335;50.526;30.458;2022-09-01T00:16:36;17.00;83.60
42835;DHT22;29335;50.526;30.458;2022-09-01T00:19:03;17.10;83.40
42835;DHT22;29335;50.526;30.458;2022-09-01T00:21:32;17.30;83.20
42835;DHT22;29335;50.526;30.458;2022-09-01T00:23:59;17.20;81.60
42835;DHT22;29335;50.526;30.458;2022-09-01T00:26:25;17.90;81.50
42835;DHT22;29335;50.526;30.458;2022-09-01T00:28:52;17.30;81.00
42835;DHT22;29335;50.526;30.458;2022-09-01T00:31:19;17.20;81.40
42835;DHT22;29335;50.526;30.458;2022-09-01T00:33:45;17.20;81.30
42835;DHT22;29335;50.526;30.458;2022-09-01T00:36:11;19.30;83.30
42835;DHT22;29335;50.526;30.458;2022-09-01T00:38:37;18.10;82.40
42835;DHT22;29335;50.526;30.458;2022-09-01T00:41:04;17.00;82.50
42835;DHT22;29335;50.526;30.458;2022-09-01T00:46:04;17.10;83.10
42835;DHT22;29335;50.526;30.458;2022-09-01T00:48:30;16.90;83.40
42835;DHT22;29335;50.526;30.458;2022-09-01T00:50:56;17.10;84.90
42835;DHT22;29335;50.526;30.458;2022-09-01T00:53:22;17.40;85.50
42835;DHT22;29335;50.526;30.458;2022-09-01T00:55:48;17.30;86.60
42835;DHT22;29335;50.526;30.458;2022-09-01T00:58:13;17.20;87.60
42835;DHT22;29335;50.526;30.458;2022-09-01T01:00:40;17.20;87.70
42835;DHT22;29335;50.526;30.458;2022-09-01T01:03:10;17.00;88.60
42835;DHT22;29335;50.526;30.458;2022-09-01T01:05:39;17.30;88.90
42835;DHT22;29335;50.526;30.458;2022-09-01T01:08:07;16.90;89.10
42835;DHT22;29335;50.526;30.458;2022-09-01T01:10:36;16.80;89.80
42835;DHT22;29335;50.526;30.458;2022-09-01T01:13:10;16.90;90.20
42835;DHT22;29335;50.526;30.458;2022-09-01T01:15:37;16.80;90.60
42835;DHT22;29335;50.526;30.458;2022-09-01T01:18:03;16.80;90.60
42835;DHT22;29335;50.526;30.458;2022-09-01T01:20:30;16.70;90.40
42835;DHT22;29335;50.526;30.458;2022-09-01T01:25:55;16.50;90.90
42835;DHT22;29335;50.526;30.458;2022-09-01T01:28:33;16.50;91.50
42835;DHT22;29335;50.526;30.458;2022-09-01T01:31:03;16.40;91.50
42835;DHT22;29335;50.526;30.458;2022-09-01T01:33:36;16.20;91.80
42835;DHT22;29335;50.526;30.458;2022-09-01T01:36:09;17.90;92.20
42835;DHT22;29335;50.526;30.458;2022-09-01T01:38:38;16.00;92.00
42835;DHT22;29335;50.526;30.458;2022-09-01T01:41:06;15.90;92.30
42835;DHT22;29335;50.526;30.458;2022-09-01T01:43:31;15.80;92.40
42835;DHT22;29335;50.526;30.458;2022-09-01T01:45:57;18.00;93.00
42835;DHT22;29335;50.526;30.458;2022-09-01T01:48:28;15.70;92.50
42835;DHT22;29335;50.526;30.458;2022-09-01T01:50:54;15.70;92.70
42835;DHT22;29335;50.526;30.458;2022-09-01T01:53:23;15.80;92.80
42835;DHT22;29335;50.526;30.458;2022-09-01T01:55:49;15.80;92.90
42835;DHT22;29335;50.526;30.458;2022-09-01T01:58:20;15.70;92.90
42835;DHT22;29335;50.526;30.458;2022-09-01T02:00:47;15.80;93.10
42835;DHT22;29335;50.526;30.458;2022-09-01T02:03:15;15.80;93.20
42835;DHT22;29335;50.526;30.458;2022-09-01T02:05:47;15.80;93.20
42835;DHT22;29335;50.526;30.458;2022-09-01T02:08:14;15.80;93.30
42835;DHT22;29335;50.526;30.458;2022-09-01T02:10:46;15.70;93.50
42835;DHT22;29335;50.526;30.458;2022-09-01T02:13:14;15.60;93.80
42835;DHT22;29335;50.526;30.458;2022-09-01T02:15:46;15.60;94.10
42835;DHT22;29335;50.526;30.458;2022-09-01T02:18:15;15.80;93.80
42835;DHT22;29335;50.526;30.458;2022-09-01T02:20:43;15.70;93.50
42835;DHT22;29335;50.526;30.458;2022-09-01T02:23:10;15.70;93.20
42835;DHT22;29335;50.526;30.458;2022-09-01T02:25:38;15.70;93.70
42835;DHT22;29335;50.526;30.458;2022-09-01T02:28:09;15.70;93.80
42835;DHT22;29335;50.526;30.458;2022-09-01T02:30:45;15.60;94.30
42835;DHT22;29335;50.526;30.458;2022-09-01T02:33:12;15.60;94.30
42835;DHT22;29335;50.526;30.458;2022-09-01T02:35:48;15.60;94.40
42835;DHT22;29335;50.526;30.458;2022-09-01T02:38:15;15.70;94.10
42835;DHT22;29335;50.526;30.458;2022-09-01T02:40:45;16.50;93.90
42835;DHT22;29335;50.526;30.458;2022-09-01T02:43:13;15.70;93.80
42835;DHT22;29335;50.526;30.458;2022-09-01T02:45:39;15.80;93.90
42835;DHT22;29335;50.526;30.458;2022-09-01T02:48:08;15.70;93.80
42835;DHT22;29335;50.526;30.458;2022-09-01T02:50:36;15.60;93.60
42835;DHT22;29335;50.526;30.458;2022-09-01T02:53:03;15.60;93.80
42835;DHT22;29335;50.526;30.458;2022-09-01T02:55:34;15.60;94.40
42835;DHT22;29335;50.526;30.458;2022-09-01T02:58:00;15.50;94.40
42835;DHT22;29335;50.526;30.458;2022-09-01T03:00:26;15.60;93.60
42835;DHT22;29335;50.526;30.458;2022-09-01T03:02:57;15.50;94.00
42835;DHT22;29335;50.526;30.458;2022-09-01T03:05:26;15.50;93.00
42835;DHT22;29335;50.526;30.458;2022-09-01T03:07:58;15.50;92.90
42835;DHT22;29335;50.526;30.458;2022-09-01T03:10:30;15.40;92.40
42835;DHT22;29335;50.526;30.458;2022-09-01T03:13:07;15.30;92.30
42835;DHT22;29335;50.526;30.458;2022-09-01T03:15:34;15.20;92.40
42835;DHT22;29335;50.526;30.458;2022-09-01T03:18:02;15.10;92.30
42835;DHT22;29335;50.526;30.458;2022-09-01T03:20:29;15.00;92.50
42835;DHT22;29335;50.526;30.458;2022-09-01T03:22:57;14.90;92.60
42835;DHT22;29335;50.526;30.458;2022-09-01T03:25:24;15.00;92.80
42835;DHT22;29335;50.526;30.458;2022-09-01T03:27:51;14.80;92.80
42835;DHT22;29335;50.526;30.458;2022-09-01T03:30:18;14.80;92.80
42835;DHT22;29335;50.526;30.458;2022-09-01T03:32:43;14.80;93.00
42835;DHT22;29335;50.526;30.458;2022-09-01T03:35:10;14.70;92.90
42835;DHT22;29335;50.526;30.458;2022-09-01T03:37:36;14.70;92.80
42835;DHT22;29335;50.526;30.458;2022-09-01T03:40:06;14.80;92.50
42835;DHT22;29335;50.526;30.458;2022-09-01T03:42:34;14.70;92.40
42835;DHT22;29335;50.526;30.458;2022-09-01T03:45:00;14.70;92.40
42835;DHT22;29335;50.526;30.458;2022-09-01T03:47:27;14.70;92.60
42835;DHT22;29335;50.526;30.458;2022-09-01T03:49:53;14.70;92.30
42835;DHT22;29335;50.526;30.458;2022-09-01T03:52:21;14.80;92.00
42835;DHT22;29335;50.526;30.458;2022-09-01T03:54:49;14.80;92.10
42835;DHT22;29335;50.526;30.458;2022-09-01T03:57:17;14.90;91.80
42835;DHT22;29335;50.526;30.458;2022-09-01T03:59:43;15.20;91.60
42835;DHT22;29335;50.526;30.458;2022-09-01T04:02:09;15.20;91.30
42835;DHT22;29335;50.526;30.458;2022-09-01T04:04:35;15.30;90.90
42835;DHT22;29335;50.526;30.458;2022-09-01T04:07:01;15.30;90.90
42835;DHT22;29335;50.526;30.458;2022-09-01T04:09:26;16.00;91.10
42835;DHT22;29335;50.526;30.458;2022-09-01T04:11:53;15.30;90.90
42835;DHT22;29335;50.526;30.458;2022-09-01T04:14:18;17.10;91.40
42835;DHT22;29335;50.526;30.458;2022-09-01T04:16:45;15.40;90.60
42835;DHT22;29335;50.526;30.458;2022-09-01T04:19:33;17.30;91.10
42835;DHT22;29335;50.526;30.458;2022-09-01T04:22:01;15.40;90.60
42835;DHT22;29335;50.526;30.458;2022-09-01T04:24:29;15.40;90.60
42835;DHT22;29335;50.526;30.458;2022-09-01T04:26:56;15.30;90.80
42835;DHT22;29335;50.526;30.458;2022-09-01T04:29:23;15.30;90.60
42835;DHT22;29335;50.526;30.458;2022-09-01T04:31:57;15.40;90.60
42835;DHT22;29335;50.526;30.458;2022-09-01T04:34:26;15.30;90.50
42835;DHT22;29335;50.526;30.458;2022-09-01T04:36:53;15.30;90.70
42835;DHT22;29335;50.526;30.458;2022-09-01T04:39:20;17.60;91.40
42835;DHT22;29335;50.526;30.458;2022-09-01T04:41:46;15.10;90.90
42835;DHT22;29335;50.526;30.458;2022-09-01T04:44:13;15.10;90.70
42835;DHT22;29335;50.526;30.458;2022-09-01T04:46:41;16.80;91.40
42835;DHT22;29335;50.526;30.458;2022-09-01T04:49:10;15.10;90.80
42835;DHT22;29335;50.526;30.458;2022-09-01T04:51:39;15.10;91.00
42835;DHT22;29335;50.526;30.458;2022-09-01T04:54:06;15.20;90.90
42835;DHT22;29335;50.526;30.458;2022-09-01T04:56:35;15.20;90.60
42835;DHT22;29335;50.526;30.458;2022-09-01T04:59:01;15.10;91.00
42835;DHT22;29335;50.526;30.458;2022-09-01T05:01:32;15.10;91.00
42835;DHT22;29335;50.526;30.458;2022-09-01T05:04:08;15.00;91.50
42835;DHT22;29335;50.526;30.458;2022-09-01T05:06:34;15.40;90.50
42835;DHT22;29335;50.526;30.458;2022-09-01T05:09:04;15.50;90.60
42835;DHT22;29335;50.526;30.458;2022-09-01T05:11:29;15.40;90.80
42835;DHT22;29335;50.526;30.458;2022-09-01T05:13:57;15.70;90.30
42835;DHT22;29335;50.526;30.458;2022-09-01T05:16:23;15.70;90.30
42835;DHT22;29335;50.526;30.458;2022-09-01T05:18:52;15.80;90.70
42835;DHT22;29335;50.526;30.458;2022-09-01T05:21:21;15.80;90.50
42835;DHT22;29335;50.526;30.458;2022-09-01T05:23:49;15.90;90.70
42835;DHT22;29335;50.526;30.458;2022-09-01T05:26:21;16.10;90.70
42835;DHT22;29335;50.526;30.458;2022-09-01T05:28:48;16.20;90.60
42835;DHT22;29335;50.526;30.458;2022-09-01T05:31:14;16.40;90.20
42835;DHT22;29335;50.526;30.458;2022-09-01T05:33:45;16.70;90.40
42835;DHT22;29335;50.526;30.458;2022-09-01T05:36:18;16.80;90.00
42835;DHT22;29335;50.526;30.458;2022-09-01T05:38:44;16.90;89.20
42835;DHT22;29335;50.526;30.458;2022-09-01T05:41:13;17.10;89.20
42835;DHT22;29335;50.526;30.458;2022-09-01T05:43:41;17.30;88.40
42835;DHT22;29335;50.526;30.458;2022-09-01T05:46:15;17.50;87.80
42835;DHT22;29335;50.526;30.458;2022-09-01T05:48:43;17.70;85.40
42835;DHT22;29335;50.526;30.458;2022-09-01T05:51:11;17.60;86.40
42835;DHT22;29335;50.526;30.458;2022-09-01T05:53:41;17.60;86.60
42835;DHT22;29335;50.526;30.458;2022-09-01T05:56:08;17.50;87.50
42835;DHT22;29335;50.526;30.458;2022-09-01T05:58:36;17.60;86.10
42835;DHT22;29335;50.526;30.458;2022-09-01T06:01:02;18.50;86.50
42835;DHT22;29335;50.526;30.458;2022-09-01T06:03:28;17.70;86.10
42835;DHT22;29335;50.526;30.458;2022-09-01T06:06:03;20.20;87.10
42835;DHT22;29335;50.526;30.458;2022-09-01T06:08:33;14.90;83.10
42835;DHT22;29335;50.526;30.458;2022-09-01T06:10:58;18.30;82.90
42835;DHT22;29335;50.526;30.458;2022-09-01T06:13:24;18.40;83.00
42835;DHT22;29335;50.526;30.458;2022-09-01T06:15:51;18.40;82.70
42835;DHT22;29335;50.526;30.458;2022-09-01T06:18:22;19.40;81.90
42835;DHT22;29335;50.526;30.458;2022-09-01T06:20:48;20.10;75.50
42835;DHT22;29335;50.526;30.458;2022-09-01T06:23:16;18.70;74.40
42835;DHT22;29335;50.526;30.458;2022-09-01T06:25:44;18.40;78.40
42835;DHT22;29335;50.526;30.458;2022-09-01T06:28:15;19.80;78.30
42835;DHT22;29335;50.526;30.458;2022-09-01T06:30:42;19.90;79.10
42835;DHT22;29335;50.526;30.458;2022-09-01T06:33:09;18.70;78.30
42835;DHT22;29335;50.526;30.458;2022-09-01T06:35:41;18.90;76.80
42835;DHT22;29335;50.526;30.458;2022-09-01T06:38:10;18.70;77.70
42835;DHT22;29335;50.526;30.458;2022-09-01T06:40:37;19.00;75.60
42835;DHT22;29335;50.526;30.458;2022-09-01T06:43:05;19.00;74.70
42835;DHT22;29335;50.526;30.458;2022-09-01T06:45:39;19.00;75.40
42835;DHT22;29335;50.526;30.458;2022-09-01T06:48:06;18.80;75.30
42835;DHT22;29335;50.526;30.458;2022-09-01T06:50:32;19.50;76.80
42835;DHT22;29335;50.526;30.458;2022-09-01T06:52:57;18.80;75.50
42835;DHT22;29335;50.526;30.458;2022-09-01T06:55:36;18.70;75.60
42835;DHT22;29335;50.526;30.458;2022-09-01T06:58:03;18.80;75.10
42835;DHT22;29335;50.526;30.458;2022-09-01T07:00:29;19.50;75.90
42835;DHT22;29335;50.526;30.458;2022-09-01T07:02:57;18.90;75.40
42835;DHT22;29335;50.526;30.458;2022-09-01T07:05:23;18.60;76.30
42835;DHT22;29335;50.526;30.458;2022-09-01T07:07:53;18.40;77.20
42835;DHT22;29335;50.526;30.458;2022-09-01T07:10:24;18.50;77.00
42835;DHT22;29335;50.526;30.458;2022-09-01T07:12:52;19.10;75.00
42835;DHT22;29335;50.526;30.458;2022-09-01T07:15:20;19.20;74.90
42835;DHT22;29335;50.526;30.458;2022-09-01T07:17:52;19.10;76.00
42835;DHT22;29335;50.526;30.458;2022-09-01T07:20:19;19.20;76.00
42835;DHT22;29335;50.526;30.458;2022-09-01T07:22:46;18.70;77.20
42835;DHT22;29335;50.526;30.458;2022-09-01T07:25:12;18.80;77.20
42835;DHT22;29335;50.526;30.458;2022-09-01T07:27:40;18.60;78.10
42835;DHT22;29335;50.526;30.458;2022-09-01T07:30:16;18.60;78.50
42835;DHT22;29335;50.526;30.458;2022-09-01T07:32:42;19.10;77.40
42835;DHT22;29335;50.526;30.458;2022-09-01T07:35:10;18.80;78.20
42835;DHT22;29335;50.526;30.458;2022-09-01T07:37:36;19.00;78.20
42835;DHT22;29335;50.526;30.458;2022-09-01T07:40:04;19.00;78.30
42835;DHT22;29335;50.526;30.458;2022-09-01T07:42:31;19.30;77.10
42835;DHT22;29335;50.526;30.458;2022-09-01T07:44:56;19.50;76.90
42835;DHT22;29335;50.526;30.458;2022-09-01T07:47:22;19.10;77.20
42835;DHT22;29335;50.526;30.458;2022-09-01T07:49:48;19.10;76.90
42835;DHT22;29335;50.526;30.458;2022-09-01T07:52:14;19.60;78.30
42835;DHT22;29335;50.526;30.458;2022-09-01T07:54:39;19.20;77.40
42835;DHT22;29335;50.526;30.458;2022-09-01T07:57:05;19.30;77.70
42835;DHT22;29335;50.526;30.458;2022-09-01T07:59:31;19.00;77.30
42835;DHT22;29335;50.526;30.458;2022-09-01T08:01:59;19.00;77.80
42835;DHT22;29335;50.526;30.458;2022-09-01T08:04:30;19.60;79.10
42835;DHT22;29335;50.526;30.458;2022-09-01T08:06:56;19.80;76.30
42835;DHT22;29335;50.526;30.458;2022-09-01T08:09:22;20.30;75.30
42835;DHT22;29335;50.526;30.458;2022-09-01T08:11:47;19.60;74.70
42835;DHT22;29335;50.526;30.458;2022-09-01T08:14:13;19.60;73.30
42835;DHT22;29335;50.526;30.458;2022-09-01T08:16:38;19.50;71.90
42835;DHT22;29335;50.526;30.458;2022-09-01T08:19:04;19.40;74.30
42835;DHT22;29335;50.526;30.458;2022-09-01T08:21:29;19.40;73.50
42835;DHT22;29335;50.526;30.458;2022-09-01T08:23:55;19.30;73.10
42835;DHT22;29335;50.526;30.458;2022-09-01T08:26:23;19.30;72.50
42835;DHT22;29335;50.526;30.458;2022-09-01T08:28:49;20.10;74.10
42835;DHT22;29335;50.526;30.458;2022-09-01T08:31:17;19.90;73.90
42835;DHT22;29335;50.526;30.458;2022-09-01T08:33:45;19.40;71.30
42835;DHT22;29335;50.526;30.458;2022-09-01T08:36:13;19.20;71.90
42835;DHT22;29335;50.526;30.458;2022-09-01T08:38:40;19.90;71.90
42835;DHT22;29335;50.526;30.458;2022-09-01T08:41:21;19.60;67.20
42835;DHT22;29335;50.526;30.458;2022-09-01T08:47:04;19.50;70.60
42835;DHT22;29335;50.526;30.458;2022-09-01T08:49:33;19.40;71.40
42835;DHT22;29335;50.526;30.458;2022-09-01T08:52:18;19.80;71.20
42835;DHT22;29335;50.526;30.458;2022-09-01T08:54:53;20.10;69.00
42835;DHT22;29335;50.526;30.458;2022-09-01T08:57:23;20.00;70.10
42835;DHT22;29335;50.526;30.458;2022-09-01T08:59:52;20.10;69.30
42835;DHT22;29335;50.526;30.458;2022-09-01T09:10:33;20.40;69.30
42835;DHT22;29335;50.526;30.458;2022-09-01T09:18:42;20.20;70.50
42835;DHT22;29335;50.526;30.458;2022-09-01T09:21:17;19.90;70.90
42835;DHT22;29335;50.526;30.458;2022-09-01T09:23:46;20.30;70.10
42835;DHT22;29335;50.526;30.458;2022-09-01T09:26:13;20.00;70.10
42835;DHT22;29335;50.526;30.458;2022-09-01T09:28:38;20.60;67.50
42835;DHT22;29335;50.526;30.458;2022-09-01T09:31:31;20.80;66.90
42835;DHT22;29335;50.526;30.458;2022-09-01T09:33:58;20.70;66.80
42835;DHT22;29335;50.526;30.458;2022-09-01T09:36:35;20.40;67.00
42835;DHT22;29335;50.526;30.458;2022-09-01T09:39:07;20.60;67.00
42835;DHT22;29335;50.526;30.458;2022-09-01T09:41:33;20.70;66.40
42835;DHT22;29335;50.526;30.458;2022-09-01T09:46:38;20.30;68.10
42835;DHT22;29335;50.526;30.458;2022-09-01T09:51:38;20.80;67.40
42835;DHT22;29335;50.526;30.458;2022-09-01T09:54:11;20.40;68.30
42835;DHT22;29335;50.526;30.458;2022-09-01T09:56:41;20.60;68.00
42835;DHT22;29335;50.526;30.458;2022-09-01T09:59:27;20.80;66.50
42835;DHT22;29335;50.526;30.458;2022-09-01T10:02:06;20.70;67.10
42835;DHT22;29335;50.526;30.458;2022-09-01T10:04:39;20.80;67.10
42835;DHT22;29335;50.526;30.458;2022-09-01T10:07:29;20.70;67.30
42835;DHT22;29335;50.526;30.458;2022-09-01T10:09:59;21.20;65.00
42835;DHT22;29335;50.526;30.458;2022-09-01T10:12:25;21.10;65.10
42835;DHT22;29335;50.526;30.458;2022-09-01T10:17:41;20.50;66.30
42835;DHT22;29335;50.526;30.458;2022-09-01T10:20:22;20.90;64.90
42835;DHT22;29335;50.526;30.458;2022-09-01T10:22:50;20.70;65.50
42835;DHT22;29335;50.526;30.458;2022-09-01T10:25:22;20.60;65.40
42835;DHT22;29335;50.526;30.458;2022-09-01T10:27:57;20.50;64.20
42835;DHT22;29335;50.526;30.458;2022-09-01T10:30:24;20.80;63.00
42835;DHT22;29335;50.526;30.458;2022-09-01T10:32:56;20.80;63.00
42835;DHT22;29335;50.526;30.458;2022-09-01T10:37:57;20.90;63.50
42835;DHT22;29335;50.526;30.458;2022-09-01T10:42:55;20.70;64.10
42835;DHT22;29335;50.526;30.458;2022-09-01T10:45:34;20.70;64.50
42835;DHT22;29335;50.526;30.458;2022-09-01T10:50:46;20.90;61.10
42835;DHT22;29335;50.526;30.458;2022-09-01T10:53:54;20.70;62.00
42835;DHT22;29335;50.526;30.458;2022-09-01T10:56:40;20.70;60.10
42835;DHT22;29335;50.526;30.458;2022-09-01T10:59:08;20.60;60.70
42835;DHT22;29335;50.526;30.458;2022-09-01T11:09:42;21.50;62.20
42835;DHT22;29335;50.526;30.458;2022-09-01T11:12:24;21.10;62.00
42835;DHT22;29335;50.526;30.458;2022-09-01T11:15:03;20.90;62.10
42835;DHT22;29335;50.526;30.458;2022-09-01T11:17:33;20.80;61.30
42835;DHT22;29335;50.526;30.458;2022-09-01T11:22:45;20.60;61.10
42835;DHT22;29335;50.526;30.458;2022-09-01T11:25:36;20.80;60.00
42835;DHT22;29335;50.526;30.458;2022-09-01T11:36:30;21.20;60.10
42835;DHT22;29335;50.526;30.458;2022-09-01T11:44:30;20.70;60.70
42835;DHT22;29335;50.526;30.458;2022-09-01T11:47:03;20.80;60.90
42835;DHT22;29335;50.526;30.458;2022-09-01T11:49:32;20.50;59.80
42835;DHT22;29335;50.526;30.458;2022-09-01T11:52:00;21.20;60.40
42835;DHT22;29335;50.526;30.458;2022-09-01T11:54:28;20.90;59.50
42835;DHT22;29335;50.526;30.458;2022-09-01T11:57:26;20.90;59.80
42835;DHT22;29335;50.526;30.458;2022-09-01T11:59:52;20.90;59.60
42835;DHT22;29335;50.526;30.458;2022-09-01T12:02:24;21.00;59.40
42835;DHT22;29335;50.526;30.458;2022-09-01T12:04:51;21.00;60.00
42835;DHT22;29335;50.526;30.458;2022-09-01T12:07:26;21.10;59.10
42835;DHT22;29335;50.526;30.458;2022-09-01T12:09:53;21.20;58.10
42835;DHT22;29335;50.526;30.458;2022-09-01T12:12:33;20.70;59.10
42835;DHT22;29335;50.526;30.458;2022-09-01T12:15:24;20.80;59.10
42835;DHT22;29335;50.526;30.458;2022-09-01T12:17:48;20.80;59.40
42835;DHT22;29335;50.526;30.458;2022-09-01T12:20:30;21.20;58.80
42835;DHT22;29335;50.526;30.458;2022-09-01T12:22:58;21.70;58.00
42835;DHT22;29335;50.526;30.458;2022-09-01T12:25:31;21.50;58.30
42835;DHT22;29335;50.526;30.458;2022-09-01T12:28:04;21.50;56.80
42835;DHT22;29335;50.526;30.458;2022-09-01T12:30:33;21.50;56.40
42835;DHT22;29335;50.526;30.458;2022-09-01T12:33:02;21.10;56.70
42835;DHT22;29335;50.526;30.458;2022-09-01T12:35:28;21.20;57.40
42835;DHT22;29335;50.526;30.458;2022-09-01T12:40:46;21.30;57.40
42835;DHT22;29335;50.526;30.458;2022-09-01T12:43:49;21.40;57.40
42835;DHT22;29335;50.526;30.458;2022-09-01T12:46:42;21.60;56.90
42835;DHT22;29335;50.526;30.458;2022-09-01T12:49:22;21.70;56.40
42835;DHT22;29335;50.526;30.458;2022-09-01T12:52:04;21.70;56.20
42835;DHT22;29335;50.526;30.458;2022-09-01T12:54:30;21.70;55.60
42835;DHT22;29335;50.526;30.458;2022-09-01T12:56:55;21.40;56.10
42835;DHT22;29335;50.526;30.458;2022-09-01T12:59:24;21.50;54.80
42835;DHT22;29335;50.526;30.458;2022-09-01T13:01:51;21.80;54.10
42835;DHT22;29335;50.526;30.458;2022-09-01T13:06:46;21.50;55.20
42835;DHT22;29335;50.526;30.458;2022-09-01T13:09:11;21.90;54.00
42835;DHT22;29335;50.526;30.458;2022-09-01T13:11:37;22.10;52.60
42835;DHT22;29335;50.526;30.458;2022-09-01T13:14:03;21.70;52.90
42835;DHT22;29335;50.526;30.458;2022-09-01T13:16:29;22.10;52.10
42835;DHT22;29335;50.526;30.458;2022-09-01T13:18:54;21.50;52.80
42835;DHT22;29335;50.526;30.458;2022-09-01T13:21:20;21.40;53.30
42835;DHT22;29335;50.526;30.458;2022-09-01T13:23:46;21.70;52.70
42835;DHT22;29335;50.526;30.458;2022-09-01T13:26:12;21.70;52.00
42835;DHT22;29335;50.526;30.458;2022-09-01T13:28:39;21.60;52.10
42835;DHT22;29335;50.526;30.458;2022-09-01T13:31:05;21.70;51.90
42835;DHT22;29335;50.526;30.458;2022-09-01T13:33:33;22.10;50.00
42835;DHT22;29335;50.526;30.458;2022-09-01T13:36:00;22.10;50.50
42835;DHT22;29335;50.526;30.458;2022-09-01T13:38:26;22.10;50.60
42835;DHT22;29335;50.526;30.458;2022-09-01T13:40:51;21.80;51.90
42835;DHT22;29335;50.526;30.458;2022-09-01T13:43:21;22.00;51.20
42835;DHT22;29335;50.526;30.458;2022-09-01T13:45:48;22.30;48.80
42835;DHT22;29335;50.526;30.458;2022-09-01T13:48:15;21.80;49.90
42835;DHT22;29335;50.526;30.458;2022-09-01T13:50:42;22.10;49.30
42835;DHT22;29335;50.526;30.458;2022-09-01T13:53:07;21.70;50.10
42835;DHT22;29335;50.526;30.458;2022-09-01T13:55:37;21.50;50.00
42835;DHT22;29335;50.526;30.458;2022-09-01T13:58:03;21.50;50.00
42835;DHT22;29335;50.526;30.458;2022-09-01T14:00:32;21.40;50.10
42835;DHT22;29335;50.526;30.458;2022-09-01T14:03:00;21.50;49.70
42835;DHT22;29335;50.526;30.458;2022-09-01T14:05:30;22.10;50.40
42835;DHT22;29335;50.526;30.458;2022-09-01T14:07:56;21.80;52.90
42835;DHT22;29335;50.526;30.458;2022-09-01T14:10:23;21.90;53.90
42835;DHT22;29335;50.526;30.458;2022-09-01T14:12:50;21.90;53.90
42835;DHT22;29335;50.526;30.458;2022-09-01T14:15:17;21.60;54.30
42835;DHT22;29335;50.526;30.458;2022-09-01T14:17:48;21.40;54.40
42835;DHT22;29335;50.526;30.458;2022-09-01T14:20:18;21.60;54.60
42835;DHT22;29335;50.526;30.458;2022-09-01T14:22:44;21.50;54.80
42835;DHT22;29335;50.526;30.458;2022-09-01T14:25:11;21.70;53.20
42835;DHT22;29335;50.526;30.458;2022-09-01T14:27:37;21.80;53.80
42835;DHT22;29335;50.526;30.458;2022-09-01T14:30:07;21.70;53.70
42835;DHT22;29335;50.526;30.458;2022-09-01T14:32:34;21.30;54.60
42835;DHT22;29335;50.526;30.458;2022-09-01T14:35:00;21.20;54.30
42835;DHT22;29335;50.526;30.458;2022-09-01T14:37:26;21.20;54.50
42835;DHT22;29335;50.526;30.458;2022-09-01T14:39:53;21.10;55.20
42835;DHT22;29335;50.526;30.458;2022-09-01T14:42:20;20.90;55.10
42835;DHT22;29335;50.526;30.458;2022-09-01T14:44:47;20.70;55.60
42835;DHT22;29335;50.526;30.458;2022-09-01T14:47:14;20.80;54.90
42835;DHT22;29335;50.526;30.458;2022-09-01T14:49:42;20.90;55.40
42835;DHT22;29335;50.526;30.458;2022-09-01T14:52:08;21.30;54.60
42835;DHT22;29335;50.526;30.458;2022-09-01T14:54:35;21.40;54.00
42835;DHT22;29335;50.526;30.458;2022-09-01T14:57:02;21.10;55.20
42835;DHT22;29335;50.526;30.458;2022-09-01T14:59:28;21.00;55.40
42835;DHT22;29335;50.526;30.458;2022-09-01T15:01:53;20.90;55.50
42835;DHT22;29335;50.526;30.458;2022-09-01T15:04:20;20.80;55.50
42835;DHT22;29335;50.526;30.458;2022-09-01T15:06:46;20.60;55.80
42835;DHT22;29335;50.526;30.458;2022-09-01T15:09:11;20.90;55.60
42835;DHT22;29335;50.526;30.458;2022-09-01T15:11:37;20.80;55.80
42835;DHT22;29335;50.526;30.458;2022-09-01T15:14:03;20.70;56.20
42835;DHT22;29335;50.526;30.458;2022-09-01T15:16:29;20.70;55.80
42835;DHT22;29335;50.526;30.458;2022-09-01T15:18:55;20.60;56.70
42835;DHT22;29335;50.526;30.458;2022-09-01T15:21:24;20.40;56.20
42835;DHT22;29335;50.526;30.458;2022-09-01T15:23:50;20.40;55.90
42835;DHT22;29335;50.526;30.458;2022-09-01T15:26:17;20.40;56.00
42835;DHT22;29335;50.526;30.458;2022-09-01T15:28:46;20.60;56.10
42835;DHT22;29335;50.526;30.458;2022-09-01T15:31:15;20.60;55.20
42835;DHT22;29335;50.526;30.458;2022-09-01T15:33:43;20.70;54.60
42835;DHT22;29335;50.526;30.458;2022-09-01T15:36:17;20.80;54.50
42835;DHT22;29335;50.526;30.458;2022-09-01T15:38:44;21.10;53.30
42835;DHT22;29335;50.526;30.458;2022-09-01T15:41:18;21.40;53.00
42835;DHT22;29335;50.526;30.458;2022-09-01T15:43:44;21.10;53.60
42835;DHT22;29335;50.526;30.458;2022-09-01T15:46:10;20.60;53.60
42835;DHT22;29335;50.526;30.458;2022-09-01T15:48:37;20.40;54.30
42835;DHT22;29335;50.526;30.458;2022-09-01T15:53:52;20.80;53.40
42835;DHT22;29335;50.526;30.458;2022-09-01T15:56:18;20.70;53.40
42835;DHT22;29335;50.526;30.458;2022-09-01T15:58:45;20.40;53.80
42835;DHT22;29335;50.526;30.458;2022-09-01T16:01:11;20.40;54.20
42835;DHT22;29335;50.526;30.458;2022-09-01T16:03:37;20.40;53.10
42835;DHT22;29335;50.526;30.458;2022-09-01T16:06:04;20.50;57.80
42835;DHT22;29335;50.526;30.458;2022-09-01T16:08:31;20.50;59.00
42835;DHT22;29335;50.526;30.458;2022-09-01T16:10:57;20.30;60.30
42835;DHT22;29335;50.526;30.458;2022-09-01T16:13:22;20.10;61.20
42835;DHT22;29335;50.526;30.458;2022-09-01T16:19:04;19.90;62.80
42835;DHT22;29335;50.526;30.458;2022-09-01T16:24:25;19.40;63.70
42835;DHT22;29335;50.526;30.458;2022-09-01T16:26:50;19.40;63.80
42835;DHT22;29335;50.526;30.458;2022-09-01T16:29:41;19.40;64.30
42835;DHT22;29335;50.526;30.458;2022-09-01T16:32:07;19.20;64.50
42835;DHT22;29335;50.526;30.458;2022-09-01T16:34:33;19.00;65.20
42835;DHT22;29335;50.526;30.458;2022-09-01T16:37:07;19.10;65.30
42835;DHT22;29335;50.526;30.458;2022-09-01T16:48:31;18.80;66.90
42835;DHT22;29335;50.526;30.458;2022-09-01T16:51:22;18.70;67.10
42835;DHT22;29335;50.526;30.458;2022-09-01T16:53:56;18.70;67.10